Hauptseite
METAR-TAF:

METAR-TAF

Flughäfen :

Flughafen Kairo

Kairo, Ägypten

Breite: 30-08N, Länge: 031-24E, Höhe: 64 m

Beobachtung

Neuester Wetterbericht von vor 21 Minuten, um 01:00 UTC
Wind 3 kt aus Ost
Temperatur 22°C
Luftfeuchtigkeit 73%
Luftdruck 1013 hPa
Sichtweite: 6000 m

METAR: HECA 190100Z 09003KT 6000 NSC 22/17 Q1013 NOSIG

Zeit: 03:21 (01:21 UTC)

Prognose

Neuester Wetterbericht von vor 2 Stunden und 21 Minuten, um 23:00 UTC
Gültige Prognose vom 19 um 00 UTC bis 20 um 06 UTC
Wind 5 kt aus Nord/Nordost
Sichtweite: 6000 m
Zeitweise
vom 19 um 01 UTC bis 19 um 08 UTC
Sichtweite: 4000 m
feuchter Dunst
Zeitweise
vom 19 um 03 UTC bis 19 um 06 UTC
Sichtweite: 2000 m
Übergehend zu
vom 19 um 09 UTC bis 19 um 11 UTC
Sichtweite 10 km oder mehr
Aufgelockert bewölkt in der Höhe von 2500 ft

TAF: HECA 182300Z 1900/2006 03005KT 6000 NSC TEMPO 1901/1908 4000 BR TEMPO 1903/1906 2000 BECMG 1909/1911 9999 SCT025

Wetterbeobachtungen und Prognosen von mehr als 4000 Flughäfen (METAR und TAF Bericht).

Die verfügbaren Stationen werden durch gelbe und rote Markierungen auf der Karte dargestellt.

Führen Sie die Maus auf sie, um den Namen der Station zu sehen.

Darauf klicken, um die Beobachtung von Wetterbeobachtungen und Prognosen zu sehen.

Um die Karte zu ändern : klicken Sie auf den grünen Tasten mit einem schwarzen Kreuz Zum Vergrößern, auf den grünen Button mit einem Gedankenstrich zu verkleinern, oder auf die grünen Pfeile für benachbarte Karten.


METAR-TAF: